createdAt,value
2018-11-28T00:01:46.436Z,43.06
2018-11-28T00:04:14.216Z,42.98
2018-11-28T00:06:41.047Z,43.02
2018-11-28T00:09:09.037Z,43.11
2018-11-28T00:11:36.862Z,42.87
2018-11-28T00:14:03.699Z,43.11
2018-11-28T00:16:30.518Z,43.24
2018-11-28T00:18:57.342Z,43.37
2018-11-28T00:21:24.584Z,42.93
2018-11-28T00:23:51.106Z,43.21
2018-11-28T00:26:17.936Z,43.13
2018-11-28T00:28:44.745Z,42.96
2018-11-28T00:31:11.633Z,43.22
2018-11-28T00:33:38.470Z,43.24
2018-11-28T00:36:05.334Z,43.27
2018-11-28T00:38:32.183Z,43.03
2018-11-28T00:40:59.857Z,43.26
2018-11-28T00:43:26.683Z,43.22
2018-11-28T00:45:53.487Z,43.08
2018-11-28T00:48:20.338Z,43.08
2018-11-28T00:50:47.155Z,42.98
2018-11-28T00:53:14.124Z,43.02
2018-11-28T00:55:40.950Z,43.11
2018-11-28T00:58:07.776Z,43.30
2018-11-28T01:00:34.612Z,42.97
2018-11-28T01:03:01.443Z,43.18
2018-11-28T01:05:29.247Z,43.04
2018-11-28T01:07:56.086Z,42.95
2018-11-28T01:10:23.445Z,43.15
2018-11-28T01:12:50.839Z,42.93
2018-11-28T01:15:18.286Z,43.18
2018-11-28T01:17:45.165Z,43.12
2018-11-28T01:20:13.093Z,43.17
2018-11-28T01:22:39.983Z,43.65
2018-11-28T01:25:08.273Z,43.21
2018-11-28T01:27:35.072Z,43.08
2018-11-28T01:30:01.899Z,43.18
2018-11-28T01:32:28.711Z,43.12
2018-11-28T01:34:55.612Z,43.11
2018-11-28T01:37:23.406Z,43.16
2018-11-28T01:39:50.254Z,42.70
2018-11-28T01:42:17.097Z,42.96
2018-11-28T01:44:44.907Z,43.15
2018-11-28T01:47:13.090Z,43.08
2018-11-28T01:49:40.866Z,42.90
2018-11-28T01:52:07.791Z,43.19
2018-11-28T01:54:35.462Z,43.01
2018-11-28T01:57:02.352Z,43.24
2018-11-28T01:59:29.200Z,42.98
2018-11-28T02:01:56.045Z,43.34
2018-11-28T02:04:22.887Z,43.20
2018-11-28T02:06:49.824Z,43.42
2018-11-28T02:09:17.479Z,43.16
2018-11-28T02:11:45.253Z,42.98
2018-11-28T02:14:13.718Z,43.03
2018-11-28T02:16:40.543Z,42.98
2018-11-28T02:19:08.577Z,43.11
2018-11-28T02:21:36.318Z,43.21
2018-11-28T02:24:03.169Z,43.09
2018-11-28T02:26:30.010Z,42.96
2018-11-28T02:28:56.837Z,42.95
2018-11-28T02:31:24.645Z,43.11
2018-11-28T02:33:52.395Z,43.45
2018-11-28T02:36:19.234Z,43.11
2018-11-28T02:38:46.110Z,43.10
2018-11-28T02:41:14.892Z,43.07
2018-11-28T02:43:43.529Z,42.93
2018-11-28T02:46:16.022Z,42.83
2018-11-28T02:48:43.629Z,43.23
2018-11-28T02:51:11.382Z,43.07
2018-11-28T02:53:39.171Z,43.12
2018-11-28T02:56:06.837Z,43.23
2018-11-28T02:58:34.747Z,42.89
2018-11-28T03:01:01.594Z,42.96
2018-11-28T03:03:29.299Z,43.04
2018-11-28T03:05:57.040Z,43.18
2018-11-28T03:08:24.878Z,43.07
2018-11-28T03:10:52.782Z,43.24
2018-11-28T03:13:19.621Z,43.13
2018-11-28T03:15:49.800Z,43.12
2018-11-28T03:18:16.957Z,43.21
2018-11-28T03:20:45.443Z,42.93
2018-11-28T03:23:13.859Z,42.99
2018-11-28T03:25:40.717Z,43.26
2018-11-28T03:28:08.546Z,43.30
2018-11-28T03:30:35.388Z,43.00
2018-11-28T03:33:02.306Z,43.03
2018-11-28T03:35:29.142Z,42.96
2018-11-28T03:37:56.008Z,42.84
2018-11-28T03:40:22.898Z,43.17
2018-11-28T03:42:50.718Z,42.90
2018-11-28T03:45:17.576Z,42.83
2018-11-28T03:47:44.747Z,43.24
2018-11-28T03:50:13.824Z,43.06
2018-11-28T03:52:40.710Z,43.13
2018-11-28T03:55:11.193Z,43.23
2018-11-28T03:57:38.880Z,42.91
2018-11-28T04:00:12.953Z,43.08
2018-11-28T04:02:40.699Z,42.78
2018-11-28T04:05:07.648Z,42.93
2018-11-28T04:07:35.389Z,43.21
2018-11-28T04:10:04.153Z,43.00
2018-11-28T04:12:31.012Z,42.95
2018-11-28T04:14:58.715Z,43.25
2018-11-28T04:17:25.587Z,42.85
2018-11-28T04:19:52.432Z,42.80
2018-11-28T04:22:19.306Z,43.02
2018-11-28T04:24:46.184Z,42.80
2018-11-28T04:27:13.745Z,42.99
2018-11-28T04:29:41.511Z,43.27
2018-11-28T04:32:09.355Z,43.02
2018-11-28T04:34:37.191Z,42.67
2018-11-28T04:37:04.143Z,42.74
2018-11-28T04:39:31.923Z,42.97
2018-11-28T04:41:59.751Z,42.68
2018-11-28T04:44:26.598Z,42.82
2018-11-28T04:46:53.447Z,42.89
2018-11-28T04:49:20.288Z,42.65
2018-11-28T04:51:48.001Z,42.54
2018-11-28T04:54:15.778Z,42.49
2018-11-28T04:56:44.319Z,42.44
2018-11-28T04:59:13.162Z,42.62
2018-11-28T05:01:40.044Z,42.65
2018-11-28T05:04:06.891Z,42.61
2018-11-28T05:07:38.964Z,42.90
2018-11-28T05:10:08.394Z,42.11
2018-11-28T05:12:36.167Z,42.54
2018-11-28T05:15:03.129Z,42.36
2018-11-28T05:17:29.977Z,42.70
2018-11-28T05:19:57.727Z,42.23
2018-11-28T05:22:25.536Z,43.05
2018-11-28T05:24:53.299Z,42.40
2018-11-28T05:27:21.140Z,41.89
2018-11-28T05:29:48.232Z,42.35
2018-11-28T05:32:16.098Z,42.03
2018-11-28T05:34:45.007Z,42.31
2018-11-28T05:37:13.489Z,42.18
2018-11-28T05:39:41.196Z,41.93
2018-11-28T05:42:09.084Z,41.87
2018-11-28T05:44:36.774Z,41.88
2018-11-28T05:47:05.032Z,41.94
2018-11-28T05:49:32.882Z,41.76
2018-11-28T05:52:00.704Z,42.54
2018-11-28T05:54:27.605Z,42.47
2018-11-28T05:56:55.435Z,41.60
2018-11-28T05:59:27.128Z,41.52
2018-11-28T06:01:50.055Z,41.70
2018-11-28T06:04:17.788Z,41.91
2018-11-28T06:06:44.633Z,41.70
2018-11-28T06:09:11.649Z,41.70
2018-11-28T06:11:39.316Z,41.59
2018-11-28T06:14:06.644Z,41.93
2018-11-28T06:16:36.624Z,41.59
2018-11-28T06:21:49.044Z,41.44
2018-11-28T06:24:16.899Z,41.36
2018-11-28T06:26:46.906Z,41.36
2018-11-28T06:29:14.671Z,41.55
2018-11-28T06:31:41.477Z,41.52
2018-11-28T06:34:09.170Z,41.60
2018-11-28T06:36:36.833Z,41.57
2018-11-28T06:39:06.716Z,41.39
2018-11-28T06:41:33.573Z,41.75
2018-11-28T06:44:01.237Z,41.32
2018-11-28T06:46:29.062Z,41.98
2018-11-28T06:48:56.717Z,41.57
2018-11-28T06:51:24.557Z,41.85
2018-11-28T06:53:52.358Z,41.72
2018-11-28T06:56:20.054Z,41.42
2018-11-28T06:58:46.902Z,41.09
2018-11-28T07:01:15.943Z,40.49
2018-11-28T07:03:43.470Z,40.63
2018-11-28T07:06:10.336Z,40.99
2018-11-28T07:08:37.193Z,41.42
2018-11-28T07:11:03.942Z,41.56
2018-11-28T07:13:30.777Z,41.53
2018-11-28T07:15:58.590Z,41.33
2018-11-28T07:18:31.000Z,41.12
2018-11-28T07:20:57.841Z,40.82
2018-11-28T07:23:24.664Z,40.44
2018-11-28T07:25:51.526Z,40.87
2018-11-28T07:28:19.234Z,40.45
2018-11-28T07:30:46.087Z,40.44
2018-11-28T07:33:13.774Z,40.98
2018-11-28T07:35:40.772Z,41.02
2018-11-28T07:38:07.628Z,40.64
2018-11-28T07:40:35.145Z,40.69
2018-11-28T07:43:05.385Z,40.91
2018-11-28T07:45:33.158Z,41.20
2018-11-28T07:48:00.083Z,40.98
2018-11-28T07:50:27.685Z,41.18
2018-11-28T07:52:54.534Z,41.13
2018-11-28T07:55:21.358Z,41.46
2018-11-28T07:57:48.984Z,41.04
2018-11-28T08:00:15.808Z,41.03
2018-11-28T08:02:43.961Z,41.04
2018-11-28T08:05:11.905Z,41.36
2018-11-28T08:07:39.663Z,41.31
2018-11-28T08:10:08.193Z,41.39
2018-11-28T08:12:35.927Z,41.14
2018-11-28T08:15:03.606Z,41.13
2018-11-28T08:17:30.511Z,41.46
2018-11-28T08:19:58.305Z,41.39
2018-11-28T08:22:27.281Z,41.39
2018-11-28T08:24:52.892Z,41.54
2018-11-28T08:27:20.710Z,41.33
2018-11-28T08:29:47.555Z,41.38
2018-11-28T08:32:14.396Z,41.70
2018-11-28T08:34:41.236Z,41.75
2018-11-28T08:37:08.128Z,41.67
2018-11-28T08:39:35.002Z,41.34
2018-11-28T08:42:02.835Z,41.53
2018-11-28T08:44:30.088Z,41.29
2018-11-28T08:46:56.934Z,41.59
2018-11-28T08:49:23.931Z,41.58
2018-11-28T08:51:50.753Z,41.34
2018-11-28T08:54:17.589Z,41.25
2018-11-28T08:56:44.404Z,41.36
2018-11-28T08:59:12.014Z,41.15
2018-11-28T09:01:46.855Z,41.26
2018-11-28T09:04:14.511Z,41.81
2018-11-28T09:06:41.350Z,41.24
2018-11-28T09:09:08.430Z,41.44
2018-11-28T09:11:35.264Z,41.50
2018-11-28T09:14:04.653Z,41.04
2018-11-28T09:16:30.793Z,41.39
2018-11-28T09:18:58.437Z,41.21
2018-11-28T09:21:25.257Z,41.36
2018-11-28T09:23:52.090Z,41.37
2018-11-28T09:26:19.945Z,41.46
2018-11-28T09:28:47.306Z,41.33
2018-11-28T09:31:15.555Z,41.56
2018-11-28T09:33:43.189Z,41.55
2018-11-28T09:36:10.587Z,41.36
2018-11-28T09:38:37.455Z,41.16
2018-11-28T09:41:04.351Z,41.29
2018-11-28T09:43:31.182Z,41.33
2018-11-28T09:45:58.080Z,41.30
2018-11-28T09:48:24.909Z,41.26
2018-11-28T09:50:51.716Z,40.98
2018-11-28T09:53:18.537Z,41.18
2018-11-28T09:55:45.479Z,41.10
2018-11-28T09:58:14.197Z,41.29
2018-11-28T10:00:41.814Z,40.98
2018-11-28T10:03:08.768Z,41.02
2018-11-28T10:05:35.606Z,41.09
2018-11-28T10:08:02.580Z,40.95
2018-11-28T10:10:29.420Z,41.03
2018-11-28T10:12:56.273Z,41.04
2018-11-28T10:15:24.501Z,41.11
2018-11-28T10:17:51.391Z,41.01
2018-11-28T10:20:19.164Z,41.18
2018-11-28T10:22:47.161Z,41.23
2018-11-28T10:25:15.594Z,40.92
2018-11-28T10:27:43.943Z,40.72
2018-11-28T10:30:12.627Z,40.72
2018-11-28T10:32:40.223Z,40.68
2018-11-28T10:35:07.085Z,40.46
2018-11-28T10:37:33.916Z,40.58
2018-11-28T10:40:01.735Z,40.63
2018-11-28T10:42:29.491Z,40.39
2018-11-28T10:44:56.317Z,40.78
2018-11-28T10:47:23.143Z,40.62
2018-11-28T10:49:50.035Z,40.47
2018-11-28T10:52:16.927Z,40.52
2018-11-28T10:54:44.595Z,40.52
2018-11-28T10:57:11.457Z,40.57
2018-11-28T10:59:38.289Z,40.42
2018-11-28T11:02:10.934Z,40.31
2018-11-28T11:06:46.562Z,40.16
2018-11-28T11:09:19.876Z,40.10
2018-11-28T11:11:53.262Z,40.57
2018-11-28T11:14:25.687Z,39.96
2018-11-28T11:16:52.620Z,40.05
2018-11-28T11:19:19.459Z,40.32
2018-11-28T11:21:47.313Z,40.49
2018-11-28T11:24:14.168Z,40.32
2018-11-28T11:26:41.041Z,39.92
2018-11-28T11:29:07.940Z,39.90
2018-11-28T11:31:35.768Z,39.77
2018-11-28T11:34:03.604Z,39.62
2018-11-28T11:36:31.414Z,39.71
2018-11-28T11:38:58.319Z,39.92
2018-11-28T11:41:25.220Z,39.51
2018-11-28T11:43:52.106Z,39.53
2018-11-28T11:46:18.929Z,39.49
2018-11-28T11:48:46.620Z,39.49
2018-11-28T11:51:14.159Z,39.67
2018-11-28T11:53:41.004Z,39.75
2018-11-28T11:56:07.864Z,39.35
2018-11-28T11:58:34.771Z,39.66
2018-11-28T12:01:01.605Z,39.77
2018-11-28T12:03:28.439Z,39.62
2018-11-28T12:05:56.796Z,39.44
2018-11-28T12:08:24.002Z,39.56
2018-11-28T12:10:50.845Z,40.16
2018-11-28T12:13:17.663Z,39.61
2018-11-28T12:15:44.510Z,39.74
2018-11-28T12:18:11.384Z,39.46
2018-11-28T12:20:41.069Z,39.49
2018-11-28T12:23:08.746Z,39.47
2018-11-28T12:25:35.657Z,39.54
2018-11-28T12:28:02.468Z,39.43
2018-11-28T12:30:29.318Z,39.65
2018-11-28T12:32:56.162Z,39.24
2018-11-28T12:35:23.015Z,39.71
2018-11-28T12:37:50.853Z,39.45
2018-11-28T12:40:17.686Z,39.51
2018-11-28T12:42:48.244Z,39.36
2018-11-28T12:45:16.582Z,39.38
2018-11-28T12:47:47.083Z,38.92
2018-11-28T12:50:15.320Z,39.12
2018-11-28T12:52:43.256Z,39.29
2018-11-28T12:55:10.133Z,39.22
2018-11-28T12:57:36.967Z,39.41
2018-11-28T13:00:06.446Z,39.44
2018-11-28T13:02:33.288Z,39.25
2018-11-28T13:05:00.133Z,39.36
2018-11-28T13:07:27.917Z,39.21
2018-11-28T13:09:55.689Z,39.43
2018-11-28T13:12:22.516Z,39.43
2018-11-28T13:14:50.308Z,39.31
2018-11-28T13:17:17.150Z,39.21
2018-11-28T13:19:45.174Z,39.68
2018-11-28T13:22:12.676Z,39.35
2018-11-28T13:24:39.504Z,39.23
2018-11-28T13:27:06.359Z,39.31
2018-11-28T13:29:34.125Z,39.19
2018-11-28T13:32:01.896Z,39.15
2018-11-28T13:34:28.732Z,39.48
2018-11-28T13:36:56.574Z,39.08
2018-11-28T13:39:23.406Z,39.10
2018-11-28T13:41:50.334Z,39.15
2018-11-28T13:44:17.172Z,39.41
2018-11-28T13:46:44.253Z,39.35
2018-11-28T13:49:13.155Z,39.41
2018-11-28T13:51:40.033Z,39.13
2018-11-28T13:54:21.025Z,39.77
2018-11-28T13:59:02.610Z,39.35
2018-11-28T14:01:30.388Z,39.46
2018-11-28T14:03:58.164Z,39.36
2018-11-28T14:06:26.122Z,39.28
2018-11-28T14:08:53.883Z,39.25
2018-11-28T14:11:19.876Z,39.09
2018-11-28T14:13:46.707Z,39.35
2018-11-28T14:16:14.484Z,39.12
2018-11-28T14:18:41.336Z,39.19
2018-11-28T14:21:08.175Z,39.30
2018-11-28T14:23:35.009Z,39.27
2018-11-28T14:26:01.839Z,39.46
2018-11-28T14:28:28.747Z,39.31
2018-11-28T14:30:56.478Z,39.49
2018-11-28T14:33:23.330Z,39.55
2018-11-28T14:35:50.165Z,39.24
2018-11-28T14:38:17.987Z,39.35
2018-11-28T14:40:44.953Z,39.28
2018-11-28T14:43:11.814Z,39.65
2018-11-28T14:45:38.662Z,39.58
2018-11-28T14:48:06.428Z,39.27
2018-11-28T14:50:33.391Z,39.40
2018-11-28T14:53:00.796Z,39.66
2018-11-28T14:55:28.173Z,39.52
2018-11-28T14:57:54.992Z,39.56
2018-11-28T15:00:23.180Z,39.55
2018-11-28T15:02:54.718Z,39.44
2018-11-28T15:05:22.692Z,39.52
2018-11-28T15:07:50.409Z,39.62
2018-11-28T15:10:17.547Z,39.44
2018-11-28T15:12:45.228Z,39.49
2018-11-28T15:15:13.841Z,39.49
2018-11-28T15:17:40.712Z,39.34
2018-11-28T15:20:08.054Z,39.43
2018-11-28T15:22:38.867Z,39.65
2018-11-28T15:25:07.677Z,39.54
2018-11-28T15:27:35.347Z,40.12
2018-11-28T15:30:02.999Z,39.82
2018-11-28T15:32:29.805Z,39.51
2018-11-28T15:34:58.005Z,39.66
2018-11-28T15:37:23.629Z,39.72
2018-11-28T15:39:55.842Z,39.62
2018-11-28T15:42:19.355Z,39.77
2018-11-28T15:44:46.970Z,39.65
2018-11-28T15:47:15.626Z,39.67
2018-11-28T15:49:43.618Z,39.77
2018-11-28T15:52:11.426Z,39.66
2018-11-28T15:54:38.371Z,40.19
2018-11-28T15:57:06.141Z,39.77
2018-11-28T15:59:33.966Z,39.41
2018-11-28T16:02:01.804Z,39.52
2018-11-28T16:04:28.643Z,39.55
2018-11-28T16:06:56.485Z,39.74
2018-11-28T16:09:29.072Z,39.81
2018-11-28T16:11:56.095Z,40.03
2018-11-28T16:14:22.956Z,40.41
2018-11-28T16:16:49.877Z,39.85
2018-11-28T16:19:16.724Z,39.82
2018-11-28T16:21:44.533Z,39.75
2018-11-28T16:24:12.892Z,39.90
2018-11-28T16:26:40.560Z,39.95
2018-11-28T16:29:07.420Z,40.06
2018-11-28T16:31:35.272Z,39.62
2018-11-28T16:34:02.149Z,40.08
2018-11-28T16:36:29.009Z,40.08
2018-11-28T16:38:55.895Z,40.32
2018-11-28T16:41:22.777Z,40.34
2018-11-28T16:43:49.622Z,40.39
2018-11-28T16:46:16.506Z,39.93
2018-11-28T16:48:44.037Z,39.90
2018-11-28T16:51:11.050Z,39.88
2018-11-28T16:53:37.948Z,39.82
2018-11-28T16:56:05.379Z,39.77
2018-11-28T16:58:32.267Z,40.00
2018-11-28T17:00:59.961Z,39.78
2018-11-28T17:03:26.793Z,39.87
2018-11-28T17:05:53.657Z,40.19
2018-11-28T17:08:20.493Z,39.73
2018-11-28T17:10:47.358Z,39.81
2018-11-28T17:13:15.167Z,40.08
2018-11-28T17:15:42.721Z,40.10
2018-11-28T17:18:09.610Z,40.07
2018-11-28T17:20:39.142Z,39.87
2018-11-28T17:23:06.078Z,40.06
2018-11-28T17:25:33.894Z,40.38
2018-11-28T17:28:00.854Z,39.91
2018-11-28T17:30:29.279Z,40.05
2018-11-28T17:32:56.145Z,39.83
2018-11-28T17:35:24.029Z,40.03
2018-11-28T17:37:50.998Z,40.07
2018-11-28T17:40:19.291Z,39.84
2018-11-28T17:42:47.884Z,39.92
2018-11-28T17:45:16.066Z,39.71
2018-11-28T17:47:43.919Z,39.68
2018-11-28T17:50:18.065Z,39.56
2018-11-28T17:52:55.550Z,39.77
2018-11-28T17:55:22.688Z,39.90
2018-11-28T17:57:50.374Z,39.95
2018-11-28T18:00:18.798Z,40.14
2018-11-28T18:02:46.693Z,39.69
2018-11-28T18:05:14.518Z,39.91
2018-11-28T18:07:42.884Z,39.81
2018-11-28T18:10:11.294Z,39.51
2018-11-28T18:13:10.955Z,39.75
2018-11-28T18:15:38.489Z,39.59
2018-11-28T18:18:06.406Z,40.10
2018-11-28T18:20:33.760Z,39.60
2018-11-28T18:23:14.752Z,40.26
2018-11-28T18:25:43.294Z,39.71
2018-11-28T18:28:11.259Z,40.04
2018-11-28T18:30:38.357Z,39.72
2018-11-28T18:33:05.799Z,40.11
2018-11-28T18:35:32.635Z,39.92
2018-11-28T18:38:00.524Z,40.28
2018-11-28T18:40:27.347Z,40.01
2018-11-28T18:42:55.050Z,39.80
2018-11-28T18:45:23.577Z,39.90
2018-11-28T18:47:50.457Z,40.00
2018-11-28T18:50:17.503Z,40.03
2018-11-28T18:52:44.921Z,40.07
2018-11-28T18:55:16.662Z,40.16
2018-11-28T18:57:41.457Z,39.85
2018-11-28T19:00:16.238Z,39.95
2018-11-28T19:02:43.699Z,39.91
2018-11-28T19:05:10.584Z,39.92
2018-11-28T19:07:37.357Z,40.00
2018-11-28T19:10:05.840Z,41.03
2018-11-28T19:12:32.709Z,39.92
2018-11-28T19:15:00.461Z,39.97
2018-11-28T19:17:27.278Z,39.94
2018-11-28T19:19:54.090Z,40.03
2018-11-28T19:22:20.991Z,39.71
2018-11-28T19:24:48.201Z,39.97
2018-11-28T19:27:14.896Z,39.87
2018-11-28T19:29:41.752Z,40.07
2018-11-28T19:32:08.638Z,39.49
2018-11-28T19:34:35.447Z,39.85
2018-11-28T19:37:02.282Z,39.91
2018-11-28T19:39:29.126Z,39.81
2018-11-28T19:41:56.008Z,40.02
2018-11-28T19:44:23.017Z,40.37
2018-11-28T19:46:49.850Z,39.92
2018-11-28T19:49:16.677Z,40.47
2018-11-28T19:51:44.463Z,40.10
2018-11-28T19:54:11.323Z,40.62
2018-11-28T19:56:38.365Z,40.01
2018-11-28T19:59:05.263Z,39.98
2018-11-28T20:01:32.244Z,40.19
2018-11-28T20:03:59.097Z,40.20
2018-11-28T20:06:25.992Z,40.08
2018-11-28T20:08:53.724Z,40.02
2018-11-28T20:11:20.578Z,39.99
2018-11-28T20:13:47.412Z,40.64
2018-11-28T20:18:41.079Z,40.34
2018-11-28T20:21:08.880Z,40.16
2018-11-28T20:23:36.602Z,40.50
2018-11-28T20:26:03.471Z,40.67
2018-11-28T20:28:31.333Z,40.14
2018-11-28T20:30:58.160Z,40.41
2018-11-28T20:33:25.153Z,40.13
2018-11-28T20:35:51.997Z,40.13
2018-11-28T20:38:34.034Z,40.25
2018-11-28T20:41:00.917Z,40.27
2018-11-28T20:43:27.767Z,40.35
2018-11-28T20:45:54.601Z,40.00
2018-11-28T20:48:21.438Z,40.55
2018-11-28T20:50:48.642Z,40.50
2018-11-28T20:53:16.237Z,40.19
2018-11-28T20:55:43.406Z,40.41
2018-11-28T20:58:10.240Z,40.28
2018-11-28T21:00:37.082Z,40.15
2018-11-28T21:03:03.911Z,40.40
2018-11-28T21:05:30.789Z,40.04
2018-11-28T21:07:58.482Z,40.23
2018-11-28T21:10:30.916Z,40.17
2018-11-28T21:12:57.761Z,40.14
2018-11-28T21:15:24.550Z,40.20
2018-11-28T21:17:51.398Z,40.13
2018-11-28T21:20:19.766Z,40.00
2018-11-28T21:22:50.296Z,40.19
2018-11-28T21:25:17.968Z,40.08
2018-11-28T21:27:44.786Z,40.16
2018-11-28T21:30:14.285Z,39.84
2018-11-28T21:32:41.193Z,40.21
2018-11-28T21:35:23.632Z,40.03
2018-11-28T21:37:50.508Z,39.93
2018-11-28T21:40:17.594Z,39.75
2018-11-28T21:42:44.418Z,39.99
2018-11-28T21:45:16.801Z,39.75
2018-11-28T21:47:44.464Z,39.79
2018-11-28T21:50:11.847Z,39.76
2018-11-28T21:52:38.902Z,39.56
2018-11-28T21:55:06.785Z,39.54
2018-11-28T21:57:33.582Z,39.78
2018-11-28T22:00:13.826Z,39.53
2018-11-28T22:02:41.141Z,39.71
2018-11-28T22:05:08.850Z,39.53
2018-11-28T22:07:35.752Z,40.23
2018-11-28T22:10:39.327Z,39.57
2018-11-28T22:13:06.487Z,39.69
2018-11-28T22:15:33.294Z,39.43
2018-11-28T22:18:00.135Z,39.30
2018-11-28T22:20:27.900Z,39.79
2018-11-28T22:22:54.789Z,39.75
2018-11-28T22:25:22.076Z,39.63
2018-11-28T22:27:48.898Z,39.75
2018-11-28T22:30:18.099Z,39.86
2018-11-28T22:32:44.981Z,39.94
2018-11-28T22:35:12.830Z,39.75
2018-11-28T22:37:39.688Z,39.72
2018-11-28T22:40:10.154Z,39.61
2018-11-28T22:42:37.868Z,39.72
2018-11-28T22:45:08.943Z,39.88
2018-11-28T22:47:36.727Z,39.54
2018-11-28T22:50:04.797Z,39.66
2018-11-28T22:52:31.616Z,39.92
2018-11-28T22:54:59.222Z,40.37
2018-11-28T22:57:27.006Z,39.72
2018-11-28T22:59:54.814Z,39.82
2018-11-28T23:02:36.160Z,40.03
2018-11-28T23:05:03.979Z,39.72
2018-11-28T23:07:30.812Z,39.86
2018-11-28T23:09:58.668Z,39.76
2018-11-28T23:12:25.499Z,40.01
2018-11-28T23:14:53.115Z,39.82
2018-11-28T23:17:19.912Z,40.24
2018-11-28T23:19:47.535Z,39.75
2018-11-28T23:22:14.369Z,39.82
2018-11-28T23:24:41.244Z,40.16
2018-11-28T23:27:09.042Z,39.78
2018-11-28T23:29:35.908Z,39.90
2018-11-28T23:32:02.770Z,40.40
2018-11-28T23:34:29.639Z,39.87
2018-11-28T23:36:57.309Z,40.24
2018-11-28T23:39:25.167Z,39.98
2018-11-28T23:41:51.997Z,39.87
2018-11-28T23:44:19.763Z,40.00
2018-11-28T23:46:47.494Z,39.77
2018-11-28T23:49:15.294Z,39.68
2018-11-28T23:51:43.591Z,39.77
2018-11-28T23:54:11.323Z,39.58
2018-11-28T23:56:39.025Z,40.01
2018-11-28T23:59:05.855Z,39.75
